TimePDT,TemperatureF,Dew PointF,Humidity,Sea Level PressureIn,VisibilityMPH,Wind Direction,Wind SpeedMPH,Gust SpeedMPH,PrecipitationIn,Events,Conditions,WindDirDegrees,DateUTC
12:56 AM,28.9,16.0,58,30.29,10.0,Calm,Calm,-,N/A,,Clear,0,2012-10-05 07:56:00
1:56 AM,23.0,12.0,63,30.31,10.0,Calm,Calm,-,N/A,,Clear,0,2012-10-05 08:56:00
2:56 AM,19.0,10.0,68,30.32,10.0,Calm,Calm,-,N/A,,Clear,0,2012-10-05 09:56:00
3:56 AM,24.1,12.9,62,30.29,10.0,South,5.8,-,N/A,,Clear,170,2012-10-05 10:56:00
4:56 AM,23.0,12.0,63,30.30,10.0,SSE,4.6,-,N/A,,Clear,160,2012-10-05 11:56:00
5:56 AM,21.9,12.9,68,30.31,10.0,Calm,Calm,-,N/A,,Clear,0,2012-10-05 12:56:00
6:56 AM,23.0,12.0,63,30.32,10.0,ESE,5.8,-,N/A,,Clear,110,2012-10-05 13:56:00
7:56 AM,26.1,12.9,58,30.33,10.0,SE,3.5,-,N/A,,Clear,140,2012-10-05 14:56:00
8:56 AM,37.0,16.0,42,30.32,10.0,Calm,Calm,-,N/A,,Clear,0,2012-10-05 15:56:00
9:56 AM,41.0,17.1,38,30.32,10.0,Calm,Calm,-,N/A,,Clear,0,2012-10-05 16:56:00
10:56 AM,46.9,16.0,29,30.32,10.0,Calm,Calm,-,N/A,,Clear,0,2012-10-05 17:56:00
11:56 AM,51.1,16.0,25,30.31,10.0,WNW,5.8,-,N/A,,Clear,300,2012-10-05 18:56:00
12:56 PM,54.0,15.1,22,30.30,10.0,Variable,6.9,-,N/A,,Clear,0,2012-10-05 19:56:00
1:56 PM,55.9,17.1,22,30.28,10.0,Variable,4.6,-,N/A,,Clear,0,2012-10-05 20:56:00
2:56 PM,59.0,17.1,20,30.27,10.0,Variable,6.9,17.3,N/A,,Clear,0,2012-10-05 21:56:00
3:56 PM,60.1,12.9,16,30.24,10.0,NW,12.7,-,N/A,,Clear,320,2012-10-05 22:56:00
4:56 PM,59.0,10.9,15,30.23,10.0,NNW,12.7,-,N/A,,Clear,340,2012-10-05 23:56:00
5:56 PM,55.9,12.9,18,30.24,10.0,NNW,13.8,-,N/A,,Clear,340,2012-10-06 00:56:00
6:56 PM,51.1,14.0,23,30.26,10.0,NW,9.2,-,N/A,,Clear,320,2012-10-06 01:56:00
7:56 PM,48.0,15.1,27,30.26,10.0,NW,10.4,-,N/A,,Clear,320,2012-10-06 02:56:00
8:56 PM,45.0,16.0,31,30.26,10.0,NW,11.5,-,N/A,,Clear,320,2012-10-06 03:56:00
9:56 PM,43.0,17.1,35,30.27,10.0,NW,8.1,-,N/A,,Clear,320,2012-10-06 04:56:00
10:56 PM,39.9,15.1,36,30.28,10.0,WNW,5.8,-,N/A,,Clear,290,2012-10-06 05:56:00
11:56 PM,34.0,14.0,44,30.30,10.0,Calm,Calm,-,N/A,,Clear,0,2012-10-06 06:56:00